Time;durP1;ratioP1;P1;durP2;ratioP2;P2;SDS_P1;SDS_P2;PMS_P1;PMS_P2;Temp;Humidity;BMP_temperature;BMP_pressure;BME280_temperature;BME280_humidity;BME280_pressure;Samples;Min_cycle;Max_cycle;Signal;HPM_P1;HPM_P2
2023/12/09 00:01:04;;;;;;;37.27;24.17;;;2.40;99.90;;;;;;5050608;28;20274;-61
2023/12/09 00:03:30;;;;;;;34.27;22.43;;;2.40;99.90;;;;;;5048925;28;20185;-60
2023/12/09 00:05:56;;;;;;;42.50;24.53;;;2.40;99.90;;;;;;5051433;28;20550;-63
2023/12/09 00:08:21;;;;;;;47.40;25.10;;;2.30;99.90;;;;;;5044248;28;20175;-61
2023/12/09 00:10:47;;;;;;;38.70;23.20;;;2.30;99.90;;;;;;5041457;28;20580;-60
2023/12/09 00:13:12;;;;;;;46.50;25.60;;;2.40;99.90;;;;;;5044346;28;20171;-62
2023/12/09 00:15:38;;;;;;;39.67;26.00;;;2.30;99.90;;;;;;5048455;28;20203;-61
2023/12/09 00:18:03;;;;;;;42.57;24.00;;;2.40;99.90;;;;;;5048702;28;20167;-63
2023/12/09 00:20:29;;;;;;;37.67;24.00;;;2.40;99.90;;;;;;5042005;28;20548;-61
2023/12/09 00:22:55;;;;;;;39.77;23.70;;;2.40;99.90;;;;;;5048064;28;20171;-61
2023/12/09 00:25:20;;;;;;;37.17;23.77;;;2.40;99.90;;;;;;5046242;28;20175;-60
2023/12/09 00:27:46;;;;;;;47.90;26.10;;;2.40;99.90;;;;;;5051056;28;20232;-63
2023/12/09 00:30:12;;;;;;;38.83;21.50;;;2.40;99.90;;;;;;5056356;28;20178;-63
2023/12/09 00:32:37;;;;;;;36.80;22.40;;;2.40;99.90;;;;;;5041383;28;20237;-60
2023/12/09 00:35:03;;;;;;;35.83;23.40;;;2.40;99.90;;;;;;5048263;28;20294;-60
2023/12/09 00:37:29;;;;;;;37.07;21.90;;;2.30;99.90;;;;;;5043191;28;20221;-60
2023/12/09 00:39:55;;;;;;;32.37;20.73;;;2.30;99.90;;;;;;5048675;28;20418;-62
2023/12/09 00:42:20;;;;;;;35.30;21.50;;;2.30;99.90;;;;;;5044215;28;20238;-62
2023/12/09 00:44:46;;;;;;;36.53;22.67;;;2.40;99.90;;;;;;5059208;28;20595;-61
2023/12/09 00:47:11;;;;;;;38.47;24.33;;;2.40;99.90;;;;;;5044332;28;20186;-64
2023/12/09 00:49:37;;;;;;;37.30;23.00;;;2.40;99.90;;;;;;5048357;28;20301;-61
2023/12/09 00:52:03;;;;;;;33.00;21.43;;;2.40;99.90;;;;;;5039981;28;20206;-62
2023/12/09 00:54:29;;;;;;;41.03;22.83;;;2.40;99.90;;;;;;5037515;28;20219;-63
2023/12/09 00:56:55;;;;;;;41.83;23.73;;;2.50;99.90;;;;;;5042825;28;20171;-64
2023/12/09 00:59:20;;;;;;;39.50;24.10;;;2.40;99.90;;;;;;5039334;28;20809;-60
2023/12/09 01:01:46;;;;;;;39.43;23.87;;;2.40;99.90;;;;;;5034612;28;20579;-63
2023/12/09 01:04:13;;;;;;;38.67;22.90;;;2.40;99.90;;;;;;5039930;28;20280;-61
2023/12/09 01:06:38;;;;;;;35.30;22.07;;;2.40;99.90;;;;;;5040907;28;20263;-60
2023/12/09 01:09:04;;;;;;;48.60;22.87;;;2.50;99.90;;;;;;5042231;28;20450;-62
2023/12/09 01:11:30;;;;;;;36.10;21.33;;;2.40;99.90;;;;;;5047636;28;20709;-60
2023/12/09 01:13:55;;;;;;;35.10;24.10;;;2.40;99.90;;;;;;5036615;28;20461;-56
2023/12/09 01:16:21;;;;;;;37.90;22.20;;;2.40;99.90;;;;;;5033986;28;20559;-63
2023/12/09 01:18:47;;;;;;;43.43;26.17;;;2.50;99.90;;;;;;5037073;28;20555;-62
2023/12/09 01:21:12;;;;;;;39.30;22.70;;;2.50;99.90;;;;;;5036735;28;20217;-60
2023/12/09 01:23:39;;;;;;;37.30;23.83;;;2.50;99.90;;;;;;5044017;28;20201;-61
2023/12/09 01:26:05;;;;;;;35.63;21.27;;;2.50;99.90;;;;;;5038152;28;20298;-64
2023/12/09 01:28:31;;;;;;;36.70;21.67;;;2.50;99.90;;;;;;5033478;28;20414;-59
2023/12/09 01:30:56;;;;;;;34.00;20.17;;;2.60;99.90;;;;;;5035679;28;20942;-62
2023/12/09 01:33:22;;;;;;;30.00;21.60;;;2.50;99.90;;;;;;5037837;28;20567;-62
2023/12/09 01:35:47;;;;;;;31.33;22.67;;;2.60;99.90;;;;;;5043718;28;20179;-63
2023/12/09 01:38:13;;;;;;;31.60;20.40;;;2.60;99.90;;;;;;5038180;28;20175;-61
2023/12/09 01:40:38;;;;;;;34.63;20.03;;;2.50;99.90;;;;;;5045591;28;20811;-61
2023/12/09 01:43:10;;;;;;;35.33;23.20;;;2.50;99.90;;;;;;5043902;28;20247;-62
2023/12/09 01:45:36;;;;;;;33.07;20.17;;;2.60;99.90;;;;;;5043663;28;20543;-62
2023/12/09 01:48:03;;;;;;;43.23;24.00;;;2.60;99.90;;;;;;5041791;28;20420;-62
2023/12/09 01:50:30;;;;;;;41.70;23.30;;;2.60;99.90;;;;;;5048191;28;20194;-62
2023/12/09 01:52:57;;;;;;;33.03;20.20;;;2.70;99.90;;;;;;5037472;28;20465;-65
2023/12/09 01:55:23;;;;;;;33.20;21.30;;;2.70;99.90;;;;;;5041456;28;20471;-62
2023/12/09 01:57:51;;;;;;;35.33;22.80;;;2.70;99.90;;;;;;5037847;28;20414;-61
2023/12/09 02:00:17;;;;;;;34.47;22.43;;;2.70;99.90;;;;;;5040966;28;20413;-62
2023/12/09 02:02:44;;;;;;;34.70;21.53;;;2.70;99.90;;;;;;5050055;28;20555;-59
2023/12/09 02:05:11;;;;;;;33.17;20.50;;;2.60;99.90;;;;;;5047902;28;20842;-64
2023/12/09 02:07:37;;;;;;;38.20;21.27;;;2.70;99.90;;;;;;5050266;28;20414;-61
2023/12/09 02:10:04;;;;;;;37.70;22.60;;;2.60;99.90;;;;;;5039842;28;20512;-62
2023/12/09 02:12:47;;;;;;;40.57;22.53;;;2.70;99.90;;;;;;5043561;28;20410;-61
2023/12/09 02:15:24;;;;;;;33.07;20.70;;;2.80;99.90;;;;;;5053130;28;20755;-62
2023/12/09 02:18:04;;;;;;;35.87;21.27;;;2.70;99.90;;;;;;5053221;28;20416;-62
2023/12/09 02:20:30;;;;;;;41.30;22.07;;;2.70;99.90;;;;;;5043416;28;20426;-61
2023/12/09 02:23:06;;;;;;;42.87;23.63;;;2.70;99.90;;;;;;5051393;28;20726;-60
2023/12/09 02:25:33;;;;;;;37.30;22.13;;;2.70;99.90;;;;;;5054142;28;20617;-61
2023/12/09 02:28:04;;;;;;;39.23;22.43;;;2.70;99.90;;;;;;5047201;28;20456;-62
2023/12/09 02:30:54;;;;;;;31.33;21.07;;;2.70;99.90;;;;;;5043668;28;20441;-59
2023/12/09 02:33:21;;;;;;;38.63;20.50;;;2.70;99.90;;;;;;5052087;28;20410;-60
2023/12/09 02:35:50;;;;;;;39.83;23.10;;;2.80;99.90;;;;;;5053605;28;20822;-61
2023/12/09 02:38:17;;;;;;;40.00;21.77;;;2.70;99.90;;;;;;5040583;28;20460;-61
2023/12/09 02:40:43;;;;;;;37.30;21.93;;;2.70;99.90;;;;;;5048630;28;20993;-61
2023/12/09 02:43:10;;;;;;;38.60;22.63;;;2.70;99.90;;;;;;5039623;28;20554;-62
2023/12/09 02:45:36;;;;;;;42.63;21.30;;;2.70;99.90;;;;;;5033230;28;20854;-63
2023/12/09 02:48:03;;;;;;;39.50;22.60;;;2.60;99.90;;;;;;5040652;28;20430;-62
2023/12/09 02:50:29;;;;;;;38.27;23.67;;;2.70;99.90;;;;;;5043190;28;21120;-60
2023/12/09 02:52:54;;;;;;;33.80;22.00;;;2.70;99.90;;;;;;5038559;28;20426;-61
2023/12/09 02:55:20;;;;;;;41.10;24.03;;;2.70;99.90;;;;;;5039473;28;20465;-60
2023/12/09 02:57:46;;;;;;;42.93;24.30;;;2.70;99.90;;;;;;5038929;28;20168;-62
2023/12/09 03:00:12;;;;;;;41.57;23.80;;;2.70;99.90;;;;;;5038328;28;20210;-58
2023/12/09 03:02:37;;;;;;;34.33;22.57;;;2.70;99.90;;;;;;5050711;28;20243;-59
2023/12/09 03:05:03;;;;;;;43.20;23.97;;;2.60;99.90;;;;;;5044629;28;20763;-60
2023/12/09 03:07:29;;;;;;;38.67;22.80;;;2.70;99.90;;;;;;5043374;28;20207;-59
2023/12/09 03:09:54;;;;;;;43.73;23.10;;;2.80;99.90;;;;;;5050875;28;20189;-60
2023/12/09 03:12:20;;;;;;;45.00;21.50;;;2.70;99.90;;;;;;5049141;28;20669;-60
2023/12/09 03:14:45;;;;;;;50.23;24.10;;;2.80;99.90;;;;;;5048417;28;20191;-64
2023/12/09 03:17:11;;;;;;;36.80;21.83;;;2.70;99.90;;;;;;5045328;28;20518;-59
2023/12/09 03:19:37;;;;;;;40.40;23.37;;;2.70;99.90;;;;;;5047843;28;20175;-60
2023/12/09 03:22:03;;;;;;;37.73;22.70;;;2.80;99.90;;;;;;5047876;28;20282;-60
2023/12/09 03:24:29;;;;;;;38.70;21.73;;;2.80;99.90;;;;;;5051085;28;20186;-60
2023/12/09 03:26:54;;;;;;;40.37;22.77;;;2.80;99.90;;;;;;5046330;28;20421;-63
2023/12/09 03:29:21;;;;;;;44.83;25.27;;;2.80;99.90;;;;;;5042849;28;20413;-63
2023/12/09 03:31:47;;;;;;;44.30;22.40;;;2.80;99.90;;;;;;5046625;28;20191;-62
2023/12/09 03:34:13;;;;;;;39.63;23.63;;;2.80;99.90;;;;;;5057548;28;20526;-61
2023/12/09 03:36:39;;;;;;;47.57;23.70;;;2.80;99.90;;;;;;5050303;28;20422;-61
2023/12/09 03:39:06;;;;;;;46.07;25.40;;;2.80;99.90;;;;;;5051162;28;20413;-63
2023/12/09 03:41:32;;;;;;;41.60;23.00;;;2.80;99.90;;;;;;5044217;28;20440;-62
2023/12/09 03:43:57;;;;;;;47.30;23.20;;;2.90;99.90;;;;;;5046063;28;20927;-62
2023/12/09 03:46:23;;;;;;;43.40;21.60;;;2.90;99.90;;;;;;5051795;28;20750;-62
2023/12/09 03:48:48;;;;;;;36.20;21.53;;;2.90;99.90;;;;;;5051134;28;20278;-62
2023/12/09 03:51:14;;;;;;;39.80;21.13;;;3.00;99.90;;;;;;5050240;28;20245;-62
2023/12/09 03:53:43;;;;;;;36.47;23.03;;;3.00;99.90;;;;;;5046987;28;20187;-62
2023/12/09 03:56:12;;;;;;;43.23;22.63;;;3.00;99.90;;;;;;5049902;28;20609;-60
2023/12/09 03:58:38;;;;;;;42.50;22.23;;;3.00;99.90;;;;;;5046315;28;20579;-62
2023/12/09 04:01:04;;;;;;;47.47;23.70;;;3.00;99.90;;;;;;5048220;28;20554;-61
2023/12/09 04:03:30;;;;;;;46.63;24.60;;;3.00;99.90;;;;;;5046252;28;20646;-60
2023/12/09 04:05:55;;;;;;;43.90;23.77;;;2.90;99.90;;;;;;5059092;28;20426;-62
2023/12/09 04:08:21;;;;;;;44.57;23.90;;;2.90;99.90;;;;;;5050553;28;20187;-62
2023/12/09 04:10:47;;;;;;;46.27;22.90;;;3.00;99.90;;;;;;5044001;28;20198;-63
2023/12/09 04:13:12;;;;;;;48.80;26.50;;;2.90;99.90;;;;;;5048396;28;20716;-61
2023/12/09 04:15:38;;;;;;;54.27;27.37;;;2.90;99.90;;;;;;5050154;28;20216;-62
2023/12/09 04:18:07;;;;;;;44.70;23.90;;;2.90;99.90;;;;;;5043578;28;20199;-60
2023/12/09 04:20:33;;;;;;;50.30;24.00;;;3.00;99.90;;;;;;5043790;28;20532;-62
2023/12/09 04:22:59;;;;;;;54.40;24.03;;;3.00;99.90;;;;;;5048189;28;20510;-63
2023/12/09 04:25:25;;;;;;;53.20;27.60;;;3.00;99.90;;;;;;5043628;28;20445;-61
2023/12/09 04:27:56;;;;;;;41.40;23.17;;;3.00;99.90;;;;;;5042896;28;20650;-62
2023/12/09 04:30:22;;;;;;;55.47;28.10;;;2.90;99.90;;;;;;5037912;28;20171;-61
2023/12/09 04:32:48;;;;;;;57.83;26.43;;;3.00;99.90;;;;;;5048185;28;20425;-62
2023/12/09 04:35:13;;;;;;;54.23;28.30;;;3.00;99.90;;;;;;5044563;28;20207;-62
2023/12/09 04:37:39;;;;;;;55.17;25.60;;;3.00;99.90;;;;;;5043028;28;20167;-62
2023/12/09 04:40:09;;;;;;;58.80;28.17;;;3.00;99.90;;;;;;5041201;28;20235;-63
2023/12/09 04:42:35;;;;;;;61.77;27.33;;;3.00;99.90;;;;;;5041345;28;20270;-61
2023/12/09 04:45:00;;;;;;;50.53;26.83;;;3.10;99.90;;;;;;5041077;28;20497;-63
2023/12/09 04:47:26;;;;;;;52.17;25.10;;;3.00;99.90;;;;;;5049316;28;20544;-62
2023/12/09 04:49:52;;;;;;;59.07;28.03;;;3.00;99.90;;;;;;5038930;28;20322;-63
2023/12/09 04:52:17;;;;;;;51.70;25.53;;;3.00;99.90;;;;;;5045470;28;20487;-63
2023/12/09 04:54:43;;;;;;;49.60;26.10;;;3.00;99.90;;;;;;5040549;28;20221;-62
2023/12/09 04:57:08;;;;;;;51.20;24.30;;;3.00;99.90;;;;;;5042832;28;20218;-62
2023/12/09 04:59:34;;;;;;;53.10;28.47;;;3.10;99.90;;;;;;5045468;28;20542;-62
2023/12/09 05:02:00;;;;;;;52.93;26.23;;;3.10;99.90;;;;;;5041436;28;20270;-63
2023/12/09 05:04:26;;;;;;;59.30;26.00;;;3.00;99.90;;;;;;5047931;28;20249;-63
2023/12/09 05:06:51;;;;;;;56.77;29.03;;;3.00;99.90;;;;;;5036345;28;20417;-62
2023/12/09 05:09:17;;;;;;;57.17;28.10;;;3.00;99.90;;;;;;5046541;28;20266;-62
2023/12/09 05:11:43;;;;;;;58.47;29.00;;;3.00;99.90;;;;;;5042231;28;20212;-63
2023/12/09 05:14:08;;;;;;;62.97;28.87;;;3.00;99.90;;;;;;5040783;28;20244;-62
2023/12/09 05:16:34;;;;;;;57.77;26.50;;;3.10;99.90;;;;;;5042608;28;20637;-62
2023/12/09 05:18:59;;;;;;;57.60;28.87;;;3.00;99.90;;;;;;5045335;28;20174;-58
2023/12/09 05:21:25;;;;;;;60.30;29.00;;;3.00;99.90;;;;;;5048647;28;20185;-61
2023/12/09 05:23:50;;;;;;;59.30;26.73;;;3.00;99.90;;;;;;5041234;28;20168;-63
2023/12/09 05:26:23;;;;;;;66.13;30.73;;;3.00;99.90;;;;;;5040779;28;20287;-63
2023/12/09 05:28:50;;;;;;;64.67;30.33;;;3.10;99.90;;;;;;5049791;28;20212;-63
2023/12/09 05:31:16;;;;;;;62.30;29.03;;;3.10;99.90;;;;;;5050286;28;20441;-61
2023/12/09 05:33:42;;;;;;;69.60;30.00;;;3.20;99.90;;;;;;5047481;28;20422;-62
2023/12/09 05:36:08;;;;;;;68.43;31.43;;;3.20;99.90;;;;;;5043744;28;20469;-62
2023/12/09 05:38:33;;;;;;;63.23;29.63;;;3.20;99.90;;;;;;5039141;28;20178;-63
2023/12/09 05:40:59;;;;;;;68.03;28.57;;;3.20;99.90;;;;;;5044761;28;20446;-62
2023/12/09 05:43:25;;;;;;;59.40;27.00;;;3.10;99.90;;;;;;5033020;28;20172;-63
2023/12/09 05:45:50;;;;;;;60.47;28.90;;;3.20;99.90;;;;;;5036060;28;20732;-60
2023/12/09 05:48:16;;;;;;;65.47;29.33;;;3.20;99.90;;;;;;5039732;28;20179;-60
2023/12/09 05:50:41;;;;;;;58.40;27.63;;;3.20;99.90;;;;;;5044445;28;20293;-61
2023/12/09 05:53:07;;;;;;;71.57;29.67;;;3.20;99.90;;;;;;5043661;28;20187;-63
2023/12/09 05:55:34;;;;;;;54.90;26.27;;;3.20;99.90;;;;;;5046426;28;20268;-63
2023/12/09 05:57:59;;;;;;;62.23;27.50;;;3.10;99.90;;;;;;5045549;28;20417;-63
2023/12/09 06:00:25;;;;;;;56.87;29.30;;;3.10;99.90;;;;;;5042906;28;20198;-63
2023/12/09 06:02:51;;;;;;;78.07;29.27;;;3.20;99.90;;;;;;5047167;28;20174;-62
2023/12/09 06:05:16;;;;;;;51.17;24.70;;;3.10;99.90;;;;;;5042756;28;20266;-62
2023/12/09 06:07:42;;;;;;;49.80;27.60;;;3.10;99.90;;;;;;5039111;28;20526;-63
2023/12/09 06:10:08;;;;;;;51.57;27.10;;;3.10;99.90;;;;;;5045114;28;20175;-62
2023/12/09 06:12:33;;;;;;;49.17;26.07;;;3.20;99.90;;;;;;5043737;28;20553;-70
2023/12/09 06:14:59;;;;;;;62.87;28.63;;;3.20;99.90;;;;;;5044530;28;20472;-63
2023/12/09 06:17:25;;;;;;;59.53;28.70;;;3.10;99.90;;;;;;5039354;28;20660;-63
2023/12/09 06:19:50;;;;;;;58.13;27.50;;;3.20;99.90;;;;;;5044825;28;20253;-63
2023/12/09 06:22:16;;;;;;;52.60;28.97;;;3.20;99.90;;;;;;5037433;28;20195;-63
2023/12/09 06:24:44;;;;;;;49.63;25.57;;;3.20;99.90;;;;;;5042661;28;20807;-63
2023/12/09 06:27:10;;;;;;;49.17;26.00;;;3.20;99.90;;;;;;5039767;28;20218;-62
2023/12/09 06:29:37;;;;;;;48.33;28.63;;;3.20;99.90;;;;;;5042933;28;20888;-64
2023/12/09 06:32:03;;;;;;;51.40;25.47;;;3.20;99.90;;;;;;5041990;28;20532;-64
2023/12/09 06:34:29;;;;;;;51.77;26.80;;;3.30;99.90;;;;;;5049147;28;20542;-64
2023/12/09 06:36:54;;;;;;;55.70;29.30;;;3.30;99.90;;;;;;5048410;28;20470;-62
2023/12/09 06:39:20;;;;;;;50.97;26.47;;;3.40;99.90;;;;;;5041194;28;20279;-64
2023/12/09 06:41:46;;;;;;;57.20;27.20;;;3.30;99.90;;;;;;5030841;28;20195;-63
2023/12/09 06:44:11;;;;;;;41.03;23.17;;;3.40;99.90;;;;;;5039892;28;20183;-61
2023/12/09 06:46:38;;;;;;;51.90;27.03;;;3.40;99.90;;;;;;5036152;28;20175;-63
2023/12/09 06:49:05;;;;;;;57.33;25.73;;;3.40;99.90;;;;;;5043900;28;20183;-62
2023/12/09 06:51:30;;;;;;;48.83;25.97;;;3.40;99.90;;;;;;5043497;28;20422;-61
2023/12/09 06:53:56;;;;;;;50.30;28.57;;;3.50;99.90;;;;;;5041275;28;20862;-63
2023/12/09 06:56:22;;;;;;;54.37;29.00;;;3.50;99.90;;;;;;5029873;28;20186;-63
2023/12/09 06:58:49;;;;;;;49.53;27.50;;;3.50;99.90;;;;;;5041711;28;20262;-63
2023/12/09 07:01:24;;;;;;;49.83;25.17;;;3.50;99.90;;;;;;5043748;28;20982;-61
2023/12/09 07:03:50;;;;;;;41.83;24.40;;;3.60;99.90;;;;;;5043258;28;20421;-62
2023/12/09 07:06:22;;;;;;;51.63;24.00;;;3.50;99.90;;;;;;5034770;28;20436;-62
2023/12/09 07:08:48;;;;;;;60.80;23.70;;;3.50;99.90;;;;;;5045138;28;20442;-64
2023/12/09 07:11:16;;;;;;;47.87;27.07;;;3.50;99.90;;;;;;5048323;28;20779;-61
2023/12/09 07:13:41;;;;;;;44.70;22.97;;;3.50;99.90;;;;;;5045005;28;20207;-60
2023/12/09 07:16:12;;;;;;;42.20;23.70;;;3.50;99.90;;;;;;5039842;28;20820;-64
2023/12/09 07:18:40;;;;;;;43.80;24.33;;;3.50;99.90;;;;;;5050764;28;20239;-63
2023/12/09 07:21:06;;;;;;;45.80;25.40;;;3.50;99.90;;;;;;5039267;28;20513;-62
2023/12/09 07:23:31;;;;;;;45.60;23.27;;;3.50;99.90;;;;;;5047069;28;20500;-61
2023/12/09 07:25:57;;;;;;;40.20;24.30;;;3.50;99.90;;;;;;5048406;28;20187;-61
2023/12/09 07:28:23;;;;;;;40.47;22.77;;;3.50;99.90;;;;;;5050621;28;20180;-64
2023/12/09 07:30:48;;;;;;;47.57;24.90;;;3.50;99.90;;;;;;5045954;28;20670;-62
2023/12/09 07:33:14;;;;;;;46.17;24.17;;;3.50;99.90;;;;;;5052585;28;20221;-62
2023/12/09 07:35:40;;;;;;;45.07;24.67;;;3.50;99.90;;;;;;5052819;28;20234;-62
2023/12/09 07:38:06;;;;;;;48.30;23.17;;;3.60;99.90;;;;;;5044635;28;20475;-61
2023/12/09 07:40:32;;;;;;;48.30;23.10;;;3.50;99.90;;;;;;5043002;28;20210;-60
2023/12/09 07:42:57;;;;;;;42.50;25.77;;;3.50;99.90;;;;;;5039895;28;20418;-63
2023/12/09 07:45:23;;;;;;;36.70;22.07;;;3.50;99.90;;;;;;5041903;28;20187;-62
2023/12/09 07:47:48;;;;;;;41.70;20.77;;;3.50;99.90;;;;;;5038593;28;20206;-64
2023/12/09 07:50:14;;;;;;;36.73;23.90;;;3.60;99.90;;;;;;5039036;28;20195;-63
2023/12/09 07:52:40;;;;;;;40.43;23.70;;;3.60;99.90;;;;;;5038811;28;20202;-63
2023/12/09 07:55:09;;;;;;;39.47;23.87;;;3.60;99.90;;;;;;5033954;28;20210;-63
2023/12/09 07:57:35;;;;;;;35.90;22.57;;;3.60;99.90;;;;;;5040548;28;20422;-63
2023/12/09 08:00:00;;;;;;;38.03;23.83;;;3.70;99.90;;;;;;5033821;28;20951;-63
2023/12/09 08:02:26;;;;;;;36.03;22.47;;;3.70;99.90;;;;;;5037722;28;20234;-63
2023/12/09 08:04:52;;;;;;;35.67;22.43;;;3.70;99.90;;;;;;5039462;28;20183;-63
2023/12/09 08:07:17;;;;;;;38.23;20.23;;;3.70;99.90;;;;;;5038822;28;20183;-61
2023/12/09 08:09:43;;;;;;;40.23;20.73;;;3.70;99.90;;;;;;5037470;28;20736;-63
2023/12/09 08:12:08;;;;;;;39.60;22.77;;;3.80;99.90;;;;;;5038389;28;20294;-62
2023/12/09 08:14:34;;;;;;;31.73;20.20;;;3.80;99.90;;;;;;5036163;28;20196;-63
2023/12/09 08:17:00;;;;;;;35.43;21.87;;;3.90;99.90;;;;;;5038779;28;20183;-63
2023/12/09 08:19:26;;;;;;;31.73;18.87;;;4.00;99.90;;;;;;5041033;28;20177;-62
2023/12/09 08:21:51;;;;;;;31.30;19.80;;;4.00;99.90;;;;;;5036828;28;20541;-60
2023/12/09 08:24:17;;;;;;;28.43;19.13;;;4.10;99.90;;;;;;5043209;28;20183;-63
2023/12/09 08:26:43;;;;;;;38.10;20.97;;;4.10;99.90;;;;;;5042479;28;20250;-64
2023/12/09 08:29:11;;;;;;;30.37;19.07;;;4.20;99.90;;;;;;5041442;28;20240;-63
2023/12/09 08:31:37;;;;;;;31.07;17.87;;;4.10;99.90;;;;;;5043828;28;20246;-62
2023/12/09 08:34:04;;;;;;;30.57;18.57;;;4.20;99.90;;;;;;5043868;28;20469;-60
2023/12/09 08:36:30;;;;;;;29.73;18.20;;;4.20;99.90;;;;;;5040143;28;20425;-59
2023/12/09 08:38:56;;;;;;;38.70;18.20;;;4.30;99.90;;;;;;5042753;28;20788;-62
2023/12/09 08:41:21;;;;;;;27.33;18.77;;;4.30;99.90;;;;;;5037777;28;20191;-64
2023/12/09 08:43:51;;;;;;;28.50;19.00;;;4.30;99.90;;;;;;5040114;28;20425;-68
2023/12/09 08:46:16;;;;;;;24.83;15.80;;;4.30;99.90;;;;;;5038968;28;20176;-67
2023/12/09 08:48:42;;;;;;;27.70;17.90;;;4.30;99.90;;;;;;5040806;28;20555;-61
2023/12/09 08:51:07;;;;;;;31.73;17.97;;;4.30;99.90;;;;;;5036123;28;20198;-62
2023/12/09 08:53:33;;;;;;;27.67;18.27;;;4.30;99.90;;;;;;5039927;28;20192;-61
2023/12/09 08:55:59;;;;;;;32.07;18.63;;;4.30;99.90;;;;;;5039174;28;20264;-63
2023/12/09 08:58:24;;;;;;;27.40;16.70;;;4.40;99.90;;;;;;5045417;28;20176;-62
2023/12/09 09:00:50;;;;;;;25.37;16.60;;;4.40;99.90;;;;;;5044255;28;20187;-62
2023/12/09 09:03:15;;;;;;;27.83;18.87;;;4.50;99.90;;;;;;5046164;28;20250;-62
2023/12/09 09:05:42;;;;;;;25.97;17.17;;;4.60;99.90;;;;;;5038450;28;20182;-62
2023/12/09 09:08:08;;;;;;;24.03;15.40;;;4.50;99.90;;;;;;5040862;28;20705;-57
2023/12/09 09:10:33;;;;;;;27.63;17.47;;;4.50;99.90;;;;;;5037837;28;20438;-57
2023/12/09 09:12:59;;;;;;;30.97;19.13;;;4.60;99.90;;;;;;5043294;28;20189;-60
2023/12/09 09:15:25;;;;;;;24.40;17.17;;;4.60;99.90;;;;;;5038603;28;20206;-62
2023/12/09 09:17:51;;;;;;;23.40;15.30;;;4.70;99.90;;;;;;5037986;28;20202;-60
2023/12/09 09:20:17;;;;;;;20.80;15.60;;;4.80;99.90;;;;;;5045291;28;20179;-60
2023/12/09 09:22:42;;;;;;;24.27;17.77;;;4.90;99.90;;;;;;5039027;28;20418;-61
2023/12/09 09:25:09;;;;;;;31.33;17.47;;;4.80;99.90;;;;;;5050286;28;20928;-63
2023/12/09 09:27:34;;;;;;;22.07;15.50;;;4.70;99.90;;;;;;5043867;28;20527;-63
2023/12/09 09:30:00;;;;;;;23.37;16.57;;;4.70;99.90;;;;;;5046266;28;20516;-63
2023/12/09 09:32:26;;;;;;;24.43;15.43;;;4.70;99.90;;;;;;5038785;28;20707;-62
2023/12/09 09:34:52;;;;;;;24.37;15.23;;;4.70;99.90;;;;;;5039541;28;20603;-61
2023/12/09 09:37:18;;;;;;;23.77;16.50;;;4.80;99.90;;;;;;5035981;28;20548;-66
2023/12/09 09:39:43;;;;;;;21.47;15.40;;;4.90;99.90;;;;;;5040980;28;20178;-62
2023/12/09 09:42:18;;;;;;;22.73;16.27;;;4.80;99.90;;;;;;5043628;28;20225;-62
2023/12/09 09:44:51;;;;;;;29.80;16.80;;;4.70;99.90;;;;;;5047665;28;20224;-61
2023/12/09 09:47:18;;;;;;;25.40;15.67;;;4.60;99.90;;;;;;5044590;28;20437;-64
2023/12/09 09:49:46;;;;;;;24.10;17.10;;;4.70;99.90;;;;;;5049636;28;20413;-63
2023/12/09 09:52:14;;;;;;;20.30;14.50;;;4.80;99.90;;;;;;5047177;28;20520;-62
2023/12/09 09:54:42;;;;;;;21.23;16.53;;;4.80;99.90;;;;;;5035578;28;21087;-61
2023/12/09 09:57:09;;;;;;;22.70;15.77;;;4.80;99.90;;;;;;5042574;28;20425;-62
2023/12/09 09:59:35;;;;;;;24.53;15.20;;;4.80;99.90;;;;;;5042446;28;20521;-62
2023/12/09 10:02:04;;;;;;;24.63;14.30;;;4.90;99.90;;;;;;5041109;28;20532;-62
2023/12/09 10:04:30;;;;;;;27.33;17.47;;;4.80;99.90;;;;;;5056968;28;20503;-62
2023/12/09 10:06:58;;;;;;;30.93;19.27;;;4.80;99.90;;;;;;5044175;28;21004;-62
2023/12/09 10:09:23;;;;;;;22.80;14.90;;;4.80;99.90;;;;;;5048204;28;20190;-62
2023/12/09 10:11:49;;;;;;;24.83;16.37;;;4.90;99.90;;;;;;5047682;28;20446;-64
2023/12/09 10:14:16;;;;;;;20.80;13.77;;;4.90;99.90;;;;;;5041773;28;20568;-64
2023/12/09 10:16:42;;;;;;;26.03;15.83;;;4.90;99.90;;;;;;5044342;28;20183;-64
2023/12/09 10:19:11;;;;;;;22.10;15.40;;;4.90;99.90;;;;;;5040905;28;20968;-66
2023/12/09 10:21:36;;;;;;;25.20;16.27;;;4.90;99.90;;;;;;5045599;28;20846;-61
2023/12/09 10:24:03;;;;;;;20.90;14.40;;;4.90;99.90;;;;;;5044893;28;20742;-59
2023/12/09 10:26:29;;;;;;;24.07;16.83;;;4.80;99.90;;;;;;5043274;28;20176;-62
2023/12/09 10:28:56;;;;;;;23.27;14.77;;;4.90;99.90;;;;;;5044443;28;20413;-60
2023/12/09 10:31:21;;;;;;;18.90;12.83;;;4.90;99.90;;;;;;5042568;28;20207;-62
2023/12/09 10:33:47;;;;;;;20.40;13.60;;;4.90;99.90;;;;;;5049055;28;20430;-63
2023/12/09 10:36:13;;;;;;;24.60;16.97;;;5.00;99.90;;;;;;5039601;28;20406;-63
2023/12/09 10:38:42;;;;;;;20.73;14.97;;;5.00;99.90;;;;;;5051061;28;20245;-63
2023/12/09 10:41:10;;;;;;;22.13;13.50;;;5.00;99.90;;;;;;5043705;28;20249;-62
2023/12/09 10:43:37;;;;;;;19.87;14.40;;;5.00;99.90;;;;;;5040394;28;20421;-63
2023/12/09 10:46:03;;;;;;;22.23;13.33;;;5.00;99.90;;;;;;5050221;28;20417;-64
2023/12/09 10:48:29;;;;;;;22.27;13.50;;;5.00;99.90;;;;;;5040338;28;20489;-64
2023/12/09 10:50:54;;;;;;;20.40;13.50;;;5.00;99.90;;;;;;5047175;28;20503;-64
2023/12/09 10:53:20;;;;;;;20.37;14.50;;;5.10;99.90;;;;;;5040987;28;20430;-62
2023/12/09 10:55:47;;;;;;;21.13;16.50;;;5.00;99.90;;;;;;5050795;28;20198;-64
2023/12/09 10:58:15;;;;;;;21.97;13.07;;;5.00;99.90;;;;;;5041250;28;20172;-63
2023/12/09 11:00:41;;;;;;;24.27;14.10;;;5.10;99.90;;;;;;5046672;28;20930;-62
2023/12/09 11:03:08;;;;;;;21.80;13.80;;;5.10;99.90;;;;;;5050163;28;20413;-61
2023/12/09 11:05:44;;;;;;;20.37;12.97;;;5.10;99.90;;;;;;5044833;28;20416;-63
2023/12/09 11:08:11;;;;;;;19.07;12.70;;;5.00;99.90;;;;;;5051155;28;20932;-61
2023/12/09 11:10:37;;;;;;;27.17;16.10;;;5.20;99.90;;;;;;5044824;28;21018;-62
2023/12/09 11:13:03;;;;;;;27.30;12.77;;;5.30;99.90;;;;;;5048310;28;20509;-63
2023/12/09 11:15:31;;;;;;;19.57;12.33;;;5.40;99.90;;;;;;5046403;28;20209;-64
2023/12/09 11:18:08;;;;;;;22.73;14.37;;;5.30;99.90;;;;;;5049069;28;20450;-64
2023/12/09 11:20:40;;;;;;;18.77;13.37;;;5.40;99.90;;;;;;5041722;28;20456;-63
2023/12/09 11:23:10;;;;;;;17.63;12.87;;;5.40;99.90;;;;;;5044315;28;20978;-61
2023/12/09 11:25:39;;;;;;;20.37;12.77;;;5.60;99.90;;;;;;5042920;28;20415;-62
2023/12/09 11:28:05;;;;;;;21.10;12.23;;;5.60;99.90;;;;;;5045786;28;20416;-64
2023/12/09 11:30:36;;;;;;;14.90;11.30;;;5.80;99.90;;;;;;5048059;28;20434;-62
2023/12/09 11:33:03;;;;;;;18.30;12.37;;;5.70;99.90;;;;;;5049872;28;20183;-62
2023/12/09 11:35:29;;;;;;;19.13;13.07;;;5.90;99.90;;;;;;5037617;28;20465;-63
2023/12/09 11:37:57;;;;;;;17.00;12.60;;;5.70;99.90;;;;;;5028225;28;20431;-62
2023/12/09 11:40:23;;;;;;;15.10;11.10;;;5.80;99.90;;;;;;5022180;28;20449;-64
2023/12/09 11:42:50;;;;;;;16.27;10.60;;;5.80;99.90;;;;;;4967185;28;20419;-66
2023/12/09 11:45:16;;;;;;;16.57;10.93;;;6.00;99.90;;;;;;4963700;28;20576;-64
2023/12/09 11:47:42;;;;;;;19.40;10.60;;;5.90;99.90;;;;;;4967821;28;20440;-64
2023/12/09 11:50:08;;;;;;;15.87;10.30;;;5.80;99.90;;;;;;5006473;28;20466;-65
2023/12/09 11:52:34;;;;;;;12.17;9.77;;;5.80;99.90;;;;;;5044276;28;20425;-67
2023/12/09 11:55:00;;;;;;;14.30;10.63;;;5.90;99.90;;;;;;5035001;28;20585;-62
2023/12/09 11:57:32;;;;;;;16.13;9.40;;;6.00;99.90;;;;;;5040407;28;20921;-63
2023/12/09 11:59:57;;;;;;;18.43;9.70;;;5.90;99.90;;;;;;5039402;28;20459;-62
2023/12/09 12:02:23;;;;;;;16.97;9.40;;;6.00;99.90;;;;;;5050647;28;20503;-66
2023/12/09 12:04:49;;;;;;;13.23;10.57;;;6.00;99.90;;;;;;5036897;28;20175;-64
2023/12/09 12:07:15;;;;;;;14.03;10.20;;;6.00;99.90;;;;;;5053612;28;20217;-62
2023/12/09 12:09:40;;;;;;;13.47;11.00;;;6.10;99.90;;;;;;5053100;28;20188;-60
2023/12/09 12:12:06;;;;;;;11.27;9.03;;;6.20;99.90;;;;;;5037492;28;21079;-62
2023/12/09 12:14:32;;;;;;;16.60;10.33;;;6.10;99.90;;;;;;5037616;28;20261;-66
2023/12/09 12:17:01;;;;;;;38.60;18.37;;;6.20;99.90;;;;;;5029235;28;20445;-60
2023/12/09 12:19:27;;;;;;;17.53;11.57;;;6.10;99.90;;;;;;5044384;28;20689;-66
2023/12/09 12:21:53;;;;;;;28.33;18.60;;;6.20;99.90;;;;;;5031788;28;20993;-65
2023/12/09 12:24:19;;;;;;;46.00;26.63;;;6.20;99.90;;;;;;5048642;28;20909;-64
2023/12/09 12:26:45;;;;;;;19.03;12.63;;;6.30;99.90;;;;;;5039916;28;20417;-61
2023/12/09 12:29:18;;;;;;;264.53;110.27;;;6.20;99.90;;;;;;5043773;28;20427;-60
2023/12/09 12:31:43;;;;;;;47.47;25.70;;;6.40;99.90;;;;;;5051112;28;20544;-60
2023/12/09 12:34:19;;;;;;;19.83;12.33;;;6.40;99.90;;;;;;5055787;28;20912;-62